sensor_id;sensor_type;location;lat;lon;timestamp;temperature;humidity
25410;DHT22;13339;50.840;4.346;2023-07-13T00:00:11;19.60;99.90
25410;DHT22;13339;50.840;4.346;2023-07-13T00:02:37;19.50;99.90
25410;DHT22;13339;50.840;4.346;2023-07-13T00:05:03;19.50;99.90
25410;DHT22;13339;50.840;4.346;2023-07-13T00:07:29;19.50;99.90
25410;DHT22;13339;50.840;4.346;2023-07-13T00:09:54;19.40;99.90
25410;DHT22;13339;50.840;4.346;2023-07-13T00:12:40;19.40;99.90
25410;DHT22;13339;50.840;4.346;2023-07-13T00:15:15;19.30;99.90
25410;DHT22;13339;50.840;4.346;2023-07-13T00:17:42;19.30;99.90
25410;DHT22;13339;50.840;4.346;2023-07-13T00:20:10;19.30;99.90
25410;DHT22;13339;50.840;4.346;2023-07-13T00:22:36;19.30;99.90
25410;DHT22;13339;50.840;4.346;2023-07-13T00:25:03;19.30;99.90
25410;DHT22;13339;50.840;4.346;2023-07-13T00:27:28;19.30;99.90
25410;DHT22;13339;50.840;4.346;2023-07-13T00:29:57;19.40;99.90
25410;DHT22;13339;50.840;4.346;2023-07-13T00:32:23;19.10;99.90
25410;DHT22;13339;50.840;4.346;2023-07-13T00:34:51;19.10;99.90
25410;DHT22;13339;50.840;4.346;2023-07-13T00:37:16;19.00;99.90
25410;DHT22;13339;50.840;4.346;2023-07-13T00:39:42;19.00;99.90
25410;DHT22;13339;50.840;4.346;2023-07-13T00:42:08;19.00;99.90
25410;DHT22;13339;50.840;4.346;2023-07-13T00:44:33;19.00;99.90
25410;DHT22;13339;50.840;4.346;2023-07-13T00:46:59;19.10;99.90
25410;DHT22;13339;50.840;4.346;2023-07-13T00:49:27;19.10;99.90
25410;DHT22;13339;50.840;4.346;2023-07-13T00:52:01;19.00;99.90
25410;DHT22;13339;50.840;4.346;2023-07-13T00:54:33;19.00;99.90
25410;DHT22;13339;50.840;4.346;2023-07-13T00:57:03;19.00;99.90
25410;DHT22;13339;50.840;4.346;2023-07-13T00:59:31;19.00;99.90
25410;DHT22;13339;50.840;4.346;2023-07-13T01:01:57;18.80;99.90
25410;DHT22;13339;50.840;4.346;2023-07-13T01:04:25;18.70;99.90
25410;DHT22;13339;50.840;4.346;2023-07-13T01:06:51;18.70;99.90
25410;DHT22;13339;50.840;4.346;2023-07-13T01:09:17;18.80;99.90
25410;DHT22;13339;50.840;4.346;2023-07-13T01:11:43;18.80;99.90
25410;DHT22;13339;50.840;4.346;2023-07-13T01:14:10;18.70;99.90
25410;DHT22;13339;50.840;4.346;2023-07-13T01:16:37;18.70;99.90
25410;DHT22;13339;50.840;4.346;2023-07-13T01:19:21;18.70;99.90
25410;DHT22;13339;50.840;4.346;2023-07-13T01:21:52;18.70;99.90
25410;DHT22;13339;50.840;4.346;2023-07-13T01:24:18;18.70;99.90
25410;DHT22;13339;50.840;4.346;2023-07-13T01:26:43;18.80;99.90
25410;DHT22;13339;50.840;4.346;2023-07-13T01:29:09;18.70;99.90
25410;DHT22;13339;50.840;4.346;2023-07-13T01:31:34;18.80;99.90
25410;DHT22;13339;50.840;4.346;2023-07-13T01:34:00;18.80;99.90
25410;DHT22;13339;50.840;4.346;2023-07-13T01:36:26;18.60;99.90
25410;DHT22;13339;50.840;4.346;2023-07-13T01:38:51;18.60;99.90
25410;DHT22;13339;50.840;4.346;2023-07-13T01:41:17;18.60;99.90
25410;DHT22;13339;50.840;4.346;2023-07-13T01:43:43;18.60;99.90
25410;DHT22;13339;50.840;4.346;2023-07-13T01:46:09;18.50;99.90
25410;DHT22;13339;50.840;4.346;2023-07-13T01:48:35;18.40;99.90
25410;DHT22;13339;50.840;4.346;2023-07-13T01:51:01;18.40;99.90
25410;DHT22;13339;50.840;4.346;2023-07-13T01:53:26;18.50;99.90
25410;DHT22;13339;50.840;4.346;2023-07-13T01:55:52;18.60;99.90
25410;DHT22;13339;50.840;4.346;2023-07-13T01:58:18;18.60;99.90
25410;DHT22;13339;50.840;4.346;2023-07-13T02:00:44;18.60;99.90
25410;DHT22;13339;50.840;4.346;2023-07-13T02:03:09;18.50;99.90
25410;DHT22;13339;50.840;4.346;2023-07-13T02:05:35;18.60;99.90
25410;DHT22;13339;50.840;4.346;2023-07-13T02:08:01;18.60;99.90
25410;DHT22;13339;50.840;4.346;2023-07-13T02:10:27;18.60;99.90
25410;DHT22;13339;50.840;4.346;2023-07-13T02:12:53;18.50;99.90
25410;DHT22;13339;50.840;4.346;2023-07-13T02:15:19;18.50;99.90
25410;DHT22;13339;50.840;4.346;2023-07-13T02:17:45;18.50;99.90
25410;DHT22;13339;50.840;4.346;2023-07-13T02:20:10;18.50;99.90
25410;DHT22;13339;50.840;4.346;2023-07-13T02:22:36;18.50;99.90
25410;DHT22;13339;50.840;4.346;2023-07-13T02:25:02;18.50;99.90
25410;DHT22;13339;50.840;4.346;2023-07-13T02:27:27;18.40;99.90
25410;DHT22;13339;50.840;4.346;2023-07-13T02:29:53;18.40;99.90
25410;DHT22;13339;50.840;4.346;2023-07-13T02:32:19;18.30;99.90
25410;DHT22;13339;50.840;4.346;2023-07-13T02:34:44;18.40;99.90
25410;DHT22;13339;50.840;4.346;2023-07-13T02:37:10;18.30;99.90
25410;DHT22;13339;50.840;4.346;2023-07-13T02:39:35;18.30;99.90
25410;DHT22;13339;50.840;4.346;2023-07-13T02:42:01;18.30;99.90
25410;DHT22;13339;50.840;4.346;2023-07-13T02:44:27;18.30;99.90
25410;DHT22;13339;50.840;4.346;2023-07-13T02:46:52;18.30;99.90
25410;DHT22;13339;50.840;4.346;2023-07-13T02:49:18;18.30;99.90
25410;DHT22;13339;50.840;4.346;2023-07-13T02:51:44;18.40;99.90
25410;DHT22;13339;50.840;4.346;2023-07-13T02:54:10;18.20;99.90
25410;DHT22;13339;50.840;4.346;2023-07-13T02:56:37;18.20;99.90
25410;DHT22;13339;50.840;4.346;2023-07-13T02:59:04;18.20;99.90
25410;DHT22;13339;50.840;4.346;2023-07-13T03:01:30;18.10;99.90
25410;DHT22;13339;50.840;4.346;2023-07-13T03:03:55;18.00;99.90
25410;DHT22;13339;50.840;4.346;2023-07-13T03:06:21;18.00;99.90
25410;DHT22;13339;50.840;4.346;2023-07-13T03:08:48;18.00;99.90
25410;DHT22;13339;50.840;4.346;2023-07-13T03:11:17;17.90;99.90
25410;DHT22;13339;50.840;4.346;2023-07-13T03:13:43;17.80;99.90
25410;DHT22;13339;50.840;4.346;2023-07-13T03:16:10;17.80;99.90
25410;DHT22;13339;50.840;4.346;2023-07-13T03:18:37;17.90;99.90
25410;DHT22;13339;50.840;4.346;2023-07-13T03:21:03;18.00;99.90
25410;DHT22;13339;50.840;4.346;2023-07-13T03:23:29;18.00;99.90
25410;DHT22;13339;50.840;4.346;2023-07-13T03:26:10;18.00;99.90
25410;DHT22;13339;50.840;4.346;2023-07-13T03:28:36;18.00;99.90
25410;DHT22;13339;50.840;4.346;2023-07-13T03:31:11;18.00;99.90
25410;DHT22;13339;50.840;4.346;2023-07-13T03:33:37;18.00;99.90
25410;DHT22;13339;50.840;4.346;2023-07-13T03:36:04;18.00;99.90
25410;DHT22;13339;50.840;4.346;2023-07-13T03:38:30;18.00;99.90
25410;DHT22;13339;50.840;4.346;2023-07-13T03:40:56;18.00;99.90
25410;DHT22;13339;50.840;4.346;2023-07-13T03:43:22;18.00;99.90
25410;DHT22;13339;50.840;4.346;2023-07-13T03:45:47;18.00;99.90
25410;DHT22;13339;50.840;4.346;2023-07-13T03:48:14;18.00;99.90
25410;DHT22;13339;50.840;4.346;2023-07-13T03:50:39;17.90;99.90
25410;DHT22;13339;50.840;4.346;2023-07-13T03:53:05;18.00;99.90
25410;DHT22;13339;50.840;4.346;2023-07-13T03:55:31;17.90;99.90
25410;DHT22;13339;50.840;4.346;2023-07-13T03:58:22;17.90;99.90
25410;DHT22;13339;50.840;4.346;2023-07-13T04:00:46;18.00;99.90
25410;DHT22;13339;50.840;4.346;2023-07-13T04:03:12;18.00;99.90
25410;DHT22;13339;50.840;4.346;2023-07-13T04:05:38;18.00;99.90
25410;DHT22;13339;50.840;4.346;2023-07-13T04:08:05;18.00;99.90
25410;DHT22;13339;50.840;4.346;2023-07-13T04:10:31;18.10;99.90
25410;DHT22;13339;50.840;4.346;2023-07-13T04:12:57;18.20;99.90
25410;DHT22;13339;50.840;4.346;2023-07-13T04:15:22;18.10;99.90
25410;DHT22;13339;50.840;4.346;2023-07-13T04:17:48;18.20;99.90
25410;DHT22;13339;50.840;4.346;2023-07-13T04:20:13;18.20;99.90
25410;DHT22;13339;50.840;4.346;2023-07-13T04:22:39;18.20;99.90
25410;DHT22;13339;50.840;4.346;2023-07-13T04:25:05;18.30;99.90
25410;DHT22;13339;50.840;4.346;2023-07-13T04:27:31;18.30;99.90
25410;DHT22;13339;50.840;4.346;2023-07-13T04:29:56;18.40;99.90
25410;DHT22;13339;50.840;4.346;2023-07-13T04:32:22;18.40;99.90
25410;DHT22;13339;50.840;4.346;2023-07-13T04:34:47;18.40;99.90
25410;DHT22;13339;50.840;4.346;2023-07-13T04:37:17;18.50;99.90
25410;DHT22;13339;50.840;4.346;2023-07-13T04:39:43;18.50;99.90
25410;DHT22;13339;50.840;4.346;2023-07-13T04:42:08;18.50;99.90
25410;DHT22;13339;50.840;4.346;2023-07-13T04:44:34;18.50;99.90
25410;DHT22;13339;50.840;4.346;2023-07-13T04:47:00;18.50;99.90
25410;DHT22;13339;50.840;4.346;2023-07-13T04:49:25;18.50;99.90
25410;DHT22;13339;50.840;4.346;2023-07-13T04:51:51;18.50;99.90
25410;DHT22;13339;50.840;4.346;2023-07-13T04:54:16;18.40;99.90
25410;DHT22;13339;50.840;4.346;2023-07-13T04:56:42;18.60;99.90
25410;DHT22;13339;50.840;4.346;2023-07-13T04:59:07;18.70;99.90
25410;DHT22;13339;50.840;4.346;2023-07-13T05:01:33;18.70;99.90
25410;DHT22;13339;50.840;4.346;2023-07-13T05:03:59;18.70;99.90
25410;DHT22;13339;50.840;4.346;2023-07-13T05:06:25;18.60;99.90
25410;DHT22;13339;50.840;4.346;2023-07-13T05:08:50;18.60;99.90
25410;DHT22;13339;50.840;4.346;2023-07-13T05:11:18;18.60;99.90
25410;DHT22;13339;50.840;4.346;2023-07-13T05:13:44;18.60;99.90
25410;DHT22;13339;50.840;4.346;2023-07-13T05:16:10;18.60;99.90
25410;DHT22;13339;50.840;4.346;2023-07-13T05:18:36;18.70;99.90
25410;DHT22;13339;50.840;4.346;2023-07-13T05:21:07;18.70;99.90
25410;DHT22;13339;50.840;4.346;2023-07-13T05:23:33;18.70;99.90
25410;DHT22;13339;50.840;4.346;2023-07-13T05:25:59;18.60;99.90
25410;DHT22;13339;50.840;4.346;2023-07-13T05:28:26;18.60;99.90
25410;DHT22;13339;50.840;4.346;2023-07-13T05:30:52;18.60;99.90
25410;DHT22;13339;50.840;4.346;2023-07-13T05:33:19;18.60;99.90
25410;DHT22;13339;50.840;4.346;2023-07-13T05:35:45;18.70;99.90
25410;DHT22;13339;50.840;4.346;2023-07-13T05:38:11;18.70;99.90
25410;DHT22;13339;50.840;4.346;2023-07-13T05:40:36;18.80;99.90
25410;DHT22;13339;50.840;4.346;2023-07-13T05:43:03;18.80;99.90
25410;DHT22;13339;50.840;4.346;2023-07-13T05:45:29;18.80;99.90
25410;DHT22;13339;50.840;4.346;2023-07-13T05:47:54;18.70;99.90
25410;DHT22;13339;50.840;4.346;2023-07-13T05:50:20;18.70;99.90
25410;DHT22;13339;50.840;4.346;2023-07-13T05:52:46;18.80;99.90
25410;DHT22;13339;50.840;4.346;2023-07-13T05:55:12;18.70;99.90
25410;DHT22;13339;50.840;4.346;2023-07-13T05:57:38;18.80;99.90
25410;DHT22;13339;50.840;4.346;2023-07-13T06:00:04;18.60;99.90
25410;DHT22;13339;50.840;4.346;2023-07-13T06:02:30;18.70;99.90
25410;DHT22;13339;50.840;4.346;2023-07-13T06:04:55;18.80;99.90
25410;DHT22;13339;50.840;4.346;2023-07-13T06:07:21;18.80;99.90
25410;DHT22;13339;50.840;4.346;2023-07-13T06:09:47;18.90;99.90
25410;DHT22;13339;50.840;4.346;2023-07-13T06:12:12;19.10;99.90
25410;DHT22;13339;50.840;4.346;2023-07-13T06:14:38;19.20;99.90
25410;DHT22;13339;50.840;4.346;2023-07-13T06:17:04;19.00;99.90
25410;DHT22;13339;50.840;4.346;2023-07-13T06:19:29;19.10;99.90
25410;DHT22;13339;50.840;4.346;2023-07-13T06:21:55;19.20;99.90
25410;DHT22;13339;50.840;4.346;2023-07-13T06:24:22;19.30;99.90
25410;DHT22;13339;50.840;4.346;2023-07-13T06:26:47;19.40;99.90
25410;DHT22;13339;50.840;4.346;2023-07-13T06:29:13;19.50;99.90
25410;DHT22;13339;50.840;4.346;2023-07-13T06:31:38;19.60;99.90
25410;DHT22;13339;50.840;4.346;2023-07-13T06:34:04;19.60;99.90
25410;DHT22;13339;50.840;4.346;2023-07-13T06:36:30;19.70;99.90
25410;DHT22;13339;50.840;4.346;2023-07-13T06:38:55;19.80;99.90
25410;DHT22;13339;50.840;4.346;2023-07-13T06:41:21;19.90;99.90
25410;DHT22;13339;50.840;4.346;2023-07-13T06:43:47;20.00;99.90
25410;DHT22;13339;50.840;4.346;2023-07-13T06:46:13;20.20;99.90
25410;DHT22;13339;50.840;4.346;2023-07-13T06:48:39;20.20;99.90
25410;DHT22;13339;50.840;4.346;2023-07-13T06:51:04;20.20;99.90
25410;DHT22;13339;50.840;4.346;2023-07-13T06:53:30;20.30;99.90
25410;DHT22;13339;50.840;4.346;2023-07-13T06:55:55;20.40;99.90
25410;DHT22;13339;50.840;4.346;2023-07-13T06:58:21;20.50;99.90
25410;DHT22;13339;50.840;4.346;2023-07-13T07:00:51;20.50;99.90
25410;DHT22;13339;50.840;4.346;2023-07-13T07:03:17;20.60;99.90
25410;DHT22;13339;50.840;4.346;2023-07-13T07:05:42;20.70;99.90
25410;DHT22;13339;50.840;4.346;2023-07-13T07:08:08;20.80;99.90
25410;DHT22;13339;50.840;4.346;2023-07-13T07:10:34;20.70;99.90
25410;DHT22;13339;50.840;4.346;2023-07-13T07:13:00;20.90;99.90
25410;DHT22;13339;50.840;4.346;2023-07-13T07:15:26;21.00;99.90
25410;DHT22;13339;50.840;4.346;2023-07-13T07:17:52;21.20;99.90
25410;DHT22;13339;50.840;4.346;2023-07-13T07:20:18;21.30;99.90
25410;DHT22;13339;50.840;4.346;2023-07-13T07:22:43;21.40;99.90
25410;DHT22;13339;50.840;4.346;2023-07-13T07:25:09;21.60;99.90
25410;DHT22;13339;50.840;4.346;2023-07-13T07:27:34;21.70;99.90
25410;DHT22;13339;50.840;4.346;2023-07-13T07:30:00;21.60;99.90
25410;DHT22;13339;50.840;4.346;2023-07-13T07:32:28;21.60;99.90
25410;DHT22;13339;50.840;4.346;2023-07-13T07:34:53;21.60;99.90
25410;DHT22;13339;50.840;4.346;2023-07-13T07:37:19;21.60;99.90
25410;DHT22;13339;50.840;4.346;2023-07-13T07:39:45;21.60;99.90
25410;DHT22;13339;50.840;4.346;2023-07-13T07:42:10;21.60;99.90
25410;DHT22;13339;50.840;4.346;2023-07-13T07:44:38;21.70;99.90
25410;DHT22;13339;50.840;4.346;2023-07-13T07:47:03;21.90;99.90
25410;DHT22;13339;50.840;4.346;2023-07-13T07:49:29;21.80;99.90
25410;DHT22;13339;50.840;4.346;2023-07-13T07:51:55;21.90;99.90
25410;DHT22;13339;50.840;4.346;2023-07-13T07:54:20;21.90;99.90
25410;DHT22;13339;50.840;4.346;2023-07-13T07:56:46;22.20;99.90
25410;DHT22;13339;50.840;4.346;2023-07-13T07:59:11;22.70;99.90
25410;DHT22;13339;50.840;4.346;2023-07-13T08:01:37;23.30;99.90
25410;DHT22;13339;50.840;4.346;2023-07-13T08:04:03;23.70;99.90
25410;DHT22;13339;50.840;4.346;2023-07-13T08:06:28;23.90;99.90
25410;DHT22;13339;50.840;4.346;2023-07-13T08:08:54;23.90;99.90
25410;DHT22;13339;50.840;4.346;2023-07-13T08:11:21;23.90;99.90
25410;DHT22;13339;50.840;4.346;2023-07-13T08:13:47;23.80;99.90
25410;DHT22;13339;50.840;4.346;2023-07-13T08:16:12;23.70;99.90
25410;DHT22;13339;50.840;4.346;2023-07-13T08:18:38;23.90;99.90
25410;DHT22;13339;50.840;4.346;2023-07-13T08:21:05;23.50;99.90
25410;DHT22;13339;50.840;4.346;2023-07-13T08:23:30;23.30;99.90
25410;DHT22;13339;50.840;4.346;2023-07-13T08:25:56;23.40;99.90
25410;DHT22;13339;50.840;4.346;2023-07-13T08:28:22;23.60;99.90
25410;DHT22;13339;50.840;4.346;2023-07-13T08:30:48;23.60;99.90
25410;DHT22;13339;50.840;4.346;2023-07-13T08:33:16;23.10;99.90
25410;DHT22;13339;50.840;4.346;2023-07-13T08:35:45;23.10;99.90
25410;DHT22;13339;50.840;4.346;2023-07-13T08:38:10;22.90;99.90
25410;DHT22;13339;50.840;4.346;2023-07-13T08:40:36;23.00;99.90
25410;DHT22;13339;50.840;4.346;2023-07-13T08:43:01;22.90;99.90
25410;DHT22;13339;50.840;4.346;2023-07-13T08:48:24;23.00;99.90
25410;DHT22;13339;50.840;4.346;2023-07-13T08:53:44;23.10;99.90
25410;DHT22;13339;50.840;4.346;2023-07-13T08:56:22;23.20;99.90
25410;DHT22;13339;50.840;4.346;2023-07-13T08:58:51;23.10;99.90
25410;DHT22;13339;50.840;4.346;2023-07-13T09:01:51;23.00;99.90
25410;DHT22;13339;50.840;4.346;2023-07-13T09:04:26;23.00;99.90
25410;DHT22;13339;50.840;4.346;2023-07-13T09:07:19;23.00;99.90
25410;DHT22;13339;50.840;4.346;2023-07-13T09:12:56;23.00;99.90
25410;DHT22;13339;50.840;4.346;2023-07-13T09:15:41;23.00;99.90
25410;DHT22;13339;50.840;4.346;2023-07-13T09:21:08;23.20;99.90
25410;DHT22;13339;50.840;4.346;2023-07-13T09:23:38;23.30;99.90
25410;DHT22;13339;50.840;4.346;2023-07-13T09:26:12;23.40;99.90
25410;DHT22;13339;50.840;4.346;2023-07-13T09:28:42;23.50;99.90
25410;DHT22;13339;50.840;4.346;2023-07-13T09:31:19;23.50;99.90
25410;DHT22;13339;50.840;4.346;2023-07-13T09:33:47;23.70;99.90
25410;DHT22;13339;50.840;4.346;2023-07-13T09:36:25;23.70;99.90
25410;DHT22;13339;50.840;4.346;2023-07-13T09:39:08;23.70;99.90
25410;DHT22;13339;50.840;4.346;2023-07-13T09:41:47;23.70;99.90
25410;DHT22;13339;50.840;4.346;2023-07-13T09:44:17;23.80;99.90
25410;DHT22;13339;50.840;4.346;2023-07-13T09:46:52;23.70;99.90
25410;DHT22;13339;50.840;4.346;2023-07-13T09:49:18;23.70;99.90
25410;DHT22;13339;50.840;4.346;2023-07-13T09:51:44;23.70;99.90
25410;DHT22;13339;50.840;4.346;2023-07-13T09:54:18;23.70;99.90
25410;DHT22;13339;50.840;4.346;2023-07-13T09:56:44;23.70;99.90
25410;DHT22;13339;50.840;4.346;2023-07-13T09:59:21;23.70;99.90
25410;DHT22;13339;50.840;4.346;2023-07-13T10:01:48;23.80;99.90
25410;DHT22;13339;50.840;4.346;2023-07-13T10:04:18;23.70;99.90
25410;DHT22;13339;50.840;4.346;2023-07-13T10:06:45;23.70;99.90
25410;DHT22;13339;50.840;4.346;2023-07-13T10:09:15;23.60;99.90
25410;DHT22;13339;50.840;4.346;2023-07-13T10:11:41;23.70;99.90
25410;DHT22;13339;50.840;4.346;2023-07-13T10:14:14;23.80;99.90
25410;DHT22;13339;50.840;4.346;2023-07-13T10:16:43;23.70;99.90
25410;DHT22;13339;50.840;4.346;2023-07-13T10:22:00;24.00;99.90
25410;DHT22;13339;50.840;4.346;2023-07-13T10:24:31;24.00;99.90
25410;DHT22;13339;50.840;4.346;2023-07-13T10:27:19;24.20;99.90
25410;DHT22;13339;50.840;4.346;2023-07-13T10:30:12;24.30;99.90
25410;DHT22;13339;50.840;4.346;2023-07-13T10:32:36;24.50;99.90
25410;DHT22;13339;50.840;4.346;2023-07-13T10:35:01;24.50;99.90
25410;DHT22;13339;50.840;4.346;2023-07-13T10:37:44;24.70;99.90
25410;DHT22;13339;50.840;4.346;2023-07-13T10:40:18;24.90;99.90
25410;DHT22;13339;50.840;4.346;2023-07-13T10:42:46;24.70;99.90
25410;DHT22;13339;50.840;4.346;2023-07-13T10:45:21;24.70;99.90
25410;DHT22;13339;50.840;4.346;2023-07-13T10:47:49;24.60;99.90
25410;DHT22;13339;50.840;4.346;2023-07-13T10:50:24;24.60;99.90
25410;DHT22;13339;50.840;4.346;2023-07-13T10:53:32;24.50;99.90
25410;DHT22;13339;50.840;4.346;2023-07-13T10:56:00;24.30;99.90
25410;DHT22;13339;50.840;4.346;2023-07-13T10:58:34;24.20;99.90
25410;DHT22;13339;50.840;4.346;2023-07-13T11:06:14;24.60;99.90
25410;DHT22;13339;50.840;4.346;2023-07-13T11:11:35;24.60;99.90
25410;DHT22;13339;50.840;4.346;2023-07-13T11:16:46;24.70;99.90
25410;DHT22;13339;50.840;4.346;2023-07-13T11:22:10;24.80;99.90
25410;DHT22;13339;50.840;4.346;2023-07-13T11:24:50;24.70;99.90
25410;DHT22;13339;50.840;4.346;2023-07-13T11:30:24;24.90;99.90
25410;DHT22;13339;50.840;4.346;2023-07-13T11:35:33;24.90;99.90
25410;DHT22;13339;50.840;4.346;2023-07-13T11:38:01;24.90;99.90
25410;DHT22;13339;50.840;4.346;2023-07-13T11:40:28;24.80;99.90
25410;DHT22;13339;50.840;4.346;2023-07-13T11:43:06;24.70;99.90
25410;DHT22;13339;50.840;4.346;2023-07-13T11:45:32;24.50;99.90
25410;DHT22;13339;50.840;4.346;2023-07-13T11:47:58;24.30;99.90
25410;DHT22;13339;50.840;4.346;2023-07-13T11:50:26;24.30;99.90
25410;DHT22;13339;50.840;4.346;2023-07-13T11:52:57;24.20;99.90
25410;DHT22;13339;50.840;4.346;2023-07-13T11:55:23;24.20;99.90
25410;DHT22;13339;50.840;4.346;2023-07-13T11:58:01;24.20;99.90
25410;DHT22;13339;50.840;4.346;2023-07-13T12:00:30;24.10;99.90
25410;DHT22;13339;50.840;4.346;2023-07-13T12:02:59;24.20;99.90
25410;DHT22;13339;50.840;4.346;2023-07-13T12:05:26;24.10;99.90
25410;DHT22;13339;50.840;4.346;2023-07-13T12:07:52;23.90;99.90
25410;DHT22;13339;50.840;4.346;2023-07-13T12:10:30;24.00;99.90
25410;DHT22;13339;50.840;4.346;2023-07-13T12:13:03;23.90;99.90
25410;DHT22;13339;50.840;4.346;2023-07-13T12:15:44;23.90;99.90
25410;DHT22;13339;50.840;4.346;2023-07-13T12:18:18;24.00;99.90
25410;DHT22;13339;50.840;4.346;2023-07-13T12:20:45;24.10;99.90
25410;DHT22;13339;50.840;4.346;2023-07-13T12:23:32;24.20;99.90
25410;DHT22;13339;50.840;4.346;2023-07-13T12:26:04;24.30;99.90
25410;DHT22;13339;50.840;4.346;2023-07-13T12:28:35;24.00;99.90
25410;DHT22;13339;50.840;4.346;2023-07-13T12:31:07;23.70;99.90
25410;DHT22;13339;50.840;4.346;2023-07-13T12:33:34;23.10;99.90
25410;DHT22;13339;50.840;4.346;2023-07-13T12:36:05;22.60;99.90
25410;DHT22;13339;50.840;4.346;2023-07-13T12:38:32;22.40;99.90
25410;DHT22;13339;50.840;4.346;2023-07-13T12:41:01;22.00;99.90
25410;DHT22;13339;50.840;4.346;2023-07-13T12:43:33;22.00;99.90
25410;DHT22;13339;50.840;4.346;2023-07-13T12:46:04;22.10;99.90
25410;DHT22;13339;50.840;4.346;2023-07-13T12:48:42;22.20;99.90
25410;DHT22;13339;50.840;4.346;2023-07-13T12:51:13;22.30;99.90
25410;DHT22;13339;50.840;4.346;2023-07-13T12:53:47;22.10;99.90
25410;DHT22;13339;50.840;4.346;2023-07-13T12:56:19;22.20;99.90
25410;DHT22;13339;50.840;4.346;2023-07-13T12:58:47;22.10;99.90
25410;DHT22;13339;50.840;4.346;2023-07-13T13:01:17;22.10;99.90
25410;DHT22;13339;50.840;4.346;2023-07-13T13:03:47;22.20;99.90
25410;DHT22;13339;50.840;4.346;2023-07-13T13:08:48;22.30;99.90
25410;DHT22;13339;50.840;4.346;2023-07-13T13:11:16;22.40;99.90
25410;DHT22;13339;50.840;4.346;2023-07-13T13:13:43;22.40;99.90
25410;DHT22;13339;50.840;4.346;2023-07-13T13:16:14;22.60;99.90
25410;DHT22;13339;50.840;4.346;2023-07-13T13:18:42;23.00;99.90
25410;DHT22;13339;50.840;4.346;2023-07-13T13:21:09;23.10;99.90
25410;DHT22;13339;50.840;4.346;2023-07-13T13:23:35;23.30;99.90
25410;DHT22;13339;50.840;4.346;2023-07-13T13:26:01;23.30;99.90
25410;DHT22;13339;50.840;4.346;2023-07-13T13:28:27;23.30;99.90
25410;DHT22;13339;50.840;4.346;2023-07-13T13:30:52;23.40;99.90
25410;DHT22;13339;50.840;4.346;2023-07-13T13:33:20;23.30;99.90
25410;DHT22;13339;50.840;4.346;2023-07-13T13:35:47;23.60;99.90
25410;DHT22;13339;50.840;4.346;2023-07-13T13:38:14;23.80;99.90
25410;DHT22;13339;50.840;4.346;2023-07-13T13:40:42;24.00;99.90
25410;DHT22;13339;50.840;4.346;2023-07-13T13:43:18;24.30;99.90
25410;DHT22;13339;50.840;4.346;2023-07-13T13:45:45;24.60;99.90
25410;DHT22;13339;50.840;4.346;2023-07-13T13:48:18;24.60;99.90
25410;DHT22;13339;50.840;4.346;2023-07-13T13:50:44;24.50;99.90
25410;DHT22;13339;50.840;4.346;2023-07-13T13:53:11;24.40;99.90
25410;DHT22;13339;50.840;4.346;2023-07-13T13:55:39;24.40;99.90
25410;DHT22;13339;50.840;4.346;2023-07-13T13:58:04;24.50;99.90
25410;DHT22;13339;50.840;4.346;2023-07-13T14:00:30;24.60;99.90
25410;DHT22;13339;50.840;4.346;2023-07-13T14:02:56;24.70;99.90
25410;DHT22;13339;50.840;4.346;2023-07-13T14:05:24;24.90;99.90
25410;DHT22;13339;50.840;4.346;2023-07-13T14:07:54;24.90;99.90
25410;DHT22;13339;50.840;4.346;2023-07-13T14:10:20;24.90;99.90
25410;DHT22;13339;50.840;4.346;2023-07-13T14:12:48;24.90;99.90
25410;DHT22;13339;50.840;4.346;2023-07-13T14:15:27;24.80;99.90
25410;DHT22;13339;50.840;4.346;2023-07-13T14:17:54;24.70;99.90
25410;DHT22;13339;50.840;4.346;2023-07-13T14:20:21;24.60;99.90
25410;DHT22;13339;50.840;4.346;2023-07-13T14:22:50;24.60;99.90
25410;DHT22;13339;50.840;4.346;2023-07-13T14:25:16;24.30;99.90
25410;DHT22;13339;50.840;4.346;2023-07-13T14:27:43;24.20;99.90
25410;DHT22;13339;50.840;4.346;2023-07-13T14:30:14;24.00;99.90
25410;DHT22;13339;50.840;4.346;2023-07-13T14:32:43;24.10;99.90
25410;DHT22;13339;50.840;4.346;2023-07-13T14:35:13;24.10;99.90
25410;DHT22;13339;50.840;4.346;2023-07-13T14:37:40;24.10;99.90
25410;DHT22;13339;50.840;4.346;2023-07-13T14:40:30;24.20;99.90
25410;DHT22;13339;50.840;4.346;2023-07-13T14:42:57;24.20;99.90
25410;DHT22;13339;50.840;4.346;2023-07-13T14:45:23;24.30;99.90
25410;DHT22;13339;50.840;4.346;2023-07-13T14:47:49;24.40;99.90
25410;DHT22;13339;50.840;4.346;2023-07-13T14:50:20;24.60;99.90
25410;DHT22;13339;50.840;4.346;2023-07-13T14:52:47;24.70;99.90
25410;DHT22;13339;50.840;4.346;2023-07-13T14:55:15;25.00;99.90
25410;DHT22;13339;50.840;4.346;2023-07-13T14:57:42;25.00;99.90
25410;DHT22;13339;50.840;4.346;2023-07-13T15:00:19;25.10;99.90
25410;DHT22;13339;50.840;4.346;2023-07-13T15:02:53;25.30;99.90
25410;DHT22;13339;50.840;4.346;2023-07-13T15:05:26;25.40;99.90
25410;DHT22;13339;50.840;4.346;2023-07-13T15:07:53;25.40;99.90
25410;DHT22;13339;50.840;4.346;2023-07-13T15:10:20;25.10;99.90
25410;DHT22;13339;50.840;4.346;2023-07-13T15:12:46;25.10;99.90
25410;DHT22;13339;50.840;4.346;2023-07-13T15:15:12;25.10;99.90
25410;DHT22;13339;50.840;4.346;2023-07-13T15:17:41;25.20;99.90
25410;DHT22;13339;50.840;4.346;2023-07-13T15:20:17;25.00;99.90
25410;DHT22;13339;50.840;4.346;2023-07-13T15:22:44;25.10;99.90
25410;DHT22;13339;50.840;4.346;2023-07-13T15:25:19;25.20;99.90
25410;DHT22;13339;50.840;4.346;2023-07-13T15:27:46;25.20;99.90
25410;DHT22;13339;50.840;4.346;2023-07-13T15:30:12;25.20;99.90
25410;DHT22;13339;50.840;4.346;2023-07-13T15:32:38;25.00;99.90
25410;DHT22;13339;50.840;4.346;2023-07-13T15:35:05;25.10;99.90
25410;DHT22;13339;50.840;4.346;2023-07-13T15:37:36;25.10;99.90
25410;DHT22;13339;50.840;4.346;2023-07-13T15:40:02;25.30;99.90
25410;DHT22;13339;50.840;4.346;2023-07-13T15:42:27;25.40;99.90
25410;DHT22;13339;50.840;4.346;2023-07-13T15:44:53;25.50;99.90
25410;DHT22;13339;50.840;4.346;2023-07-13T15:47:19;25.70;99.90
25410;DHT22;13339;50.840;4.346;2023-07-13T15:49:45;25.70;99.90
25410;DHT22;13339;50.840;4.346;2023-07-13T15:52:23;25.70;99.90
25410;DHT22;13339;50.840;4.346;2023-07-13T15:54:49;25.80;99.90
25410;DHT22;13339;50.840;4.346;2023-07-13T15:57:16;25.90;99.90
25410;DHT22;13339;50.840;4.346;2023-07-13T15:59:42;25.90;99.90
25410;DHT22;13339;50.840;4.346;2023-07-13T16:02:19;26.00;99.90
25410;DHT22;13339;50.840;4.346;2023-07-13T16:04:45;26.20;99.90
25410;DHT22;13339;50.840;4.346;2023-07-13T16:07:11;26.30;99.90
25410;DHT22;13339;50.840;4.346;2023-07-13T16:09:38;26.30;99.90
25410;DHT22;13339;50.840;4.346;2023-07-13T16:12:23;26.20;99.90